ADDS METAR Data

Data at: 2122 UTC 23 Apr 2018

EDDW 232050Z 27003KT 9999 SCT042 10/07 Q1015 BECMG 23006KT
EDDW 232020Z 31006KT 9999 SCT042 11/07 Q1015 BECMG 23006KT
EDDW 231950Z 31010KT 9999 SCT042 12/07 Q1015 BECMG 23006KT
EDDW 231920Z 30007KT CAVOK 11/07 Q1015 BECMG 23006KT
EDDW 231850Z 29009KT CAVOK 12/07 Q1014 BECMG 23006KT
EDDW 231820Z 30008KT 9999 FEW048 SCT300 13/07 Q1014 BECMG 23006KT
EDDW 231750Z 28016KT 9999 FEW045 SCT300 14/06 Q1014 BECMG 23006KT
EDDW 231720Z 28016KT 9999 FEW045 SCT300 15/06 Q1014 TEMPO 27015G25KT
EDDW 231650Z 28016KT 9999 FEW045 SCT300 16/06 Q1013 TEMPO 27015G25KT
EDDW 231620Z 28015KT 9999 FEW048 SCT300 16/07 Q1013 TEMPO 27015G25KT
EDDW 231550Z 29015KT 9999 FEW048 SCT300 16/07 Q1013 TEMPO 27015G25KT
EDDW 231520Z 27016KT 9999 SCT048 SCT300 17/06 Q1013 TEMPO 27015G25KT
EDDW 231450Z 27015KT 9999 SCT045 SCT300 18/06 Q1013 TEMPO 27015G25KT
EDDW 231420Z 26016KT 9999 SCT045 17/07 Q1013 TEMPO 27015G25KT
EDDW 231350Z 27015KT 9999 FEW045 SCT070 16/07 Q1013 TEMPO 27015G25KT
EDDW 231320Z 27012KT 9999 FEW045 SCT060 17/07 Q1013 TEMPO 27015G25KT
EDDW 231250Z 25014KT 9999 FEW045 SCT060 18/07 Q1013 TEMPO 27015G25KT
EDDW 231220Z 26017KT 230V300 9999 FEW040 SCT060 16/06 Q1013 TEMPO 27015G25KT
EDDW 231150Z 28014KT 9999 FEW035 SCT060 17/08 Q1013 TEMPO 27015G25KT
EDDW 231120Z 29014KT 260V330 9999 SCT032 16/08 Q1013 TEMPO 27015G25KT
EDDW 231050Z 28013KT 9999 SCT030 17/09 Q1013 TEMPO 27015G25KT
EDDW 231020Z 29015KT 250V330 9999 SCT028 16/11 Q1013 TEMPO 27015G25KT
EDDW 230950Z 25016KT 9999 SCT025 17/11 Q1012 TEMPO 27015G25KT
EDDW 230920Z 27016KT 9999 SCT018 15/10 Q1012 TEMPO 27015G25KT
EDDW 230850Z 27015KT 9999 BKN018 16/12 Q1012 TEMPO 27015G25KT
EDDW 230820Z 27017KT 9999 BKN018 15/11 Q1012 TEMPO 27015G25KT
EDDW 230750Z 26015KT 9999 BKN016 15/11 Q1011 TEMPO BKN014
EDDW 230720Z 26013KT 9999 BKN017 15/12 Q1011 TEMPO BKN014
EDDW 230650Z 26012KT 9999 FEW017 SCT056 15/11 Q1011 NOSIG
EDDW 230620Z 25010KT 9999 SCT044 BKN300 14/11 Q1010 NOSIG
EDDW 230550Z 25011KT 9999 BKN044 14/11 Q1010 NOSIG
EDDW 230520Z 24010KT CAVOK 14/11 Q1009 NOSIG
EDDW 230450Z 24010KT CAVOK 14/11 Q1009 NOSIG
EDDW 230420Z 24011KT CAVOK 14/11 Q1009 NOSIG
EDDW 230350Z 24011KT CAVOK 14/11 Q1009 NOSIG
EDDW 230320Z 24011KT CAVOK 15/12 Q1009
EDDW 230250Z 23009KT CAVOK 15/13 Q1008
EDDW 230220Z 23008KT CAVOK 14/13 Q1009
EDDW 230150Z 23007KT CAVOK 14/13 Q1009
EDDW 230120Z AUTO 21007KT 9999 // OVC140/// 15/13 Q1008
EDDW 230050Z AUTO 22004KT 200V280 9999 // OVC140/// 13/12 Q1008
EDDW 230020Z AUTO 21004KT 180V250 9999 // BKN150/// 13/12 Q1009
EDDW 222350Z AUTO 19003KT 9999 // FEW150/// 14/12 Q1009
EDDW 222320Z AUTO 20006KT 9999 2300 // NCD 14/13 Q1009
EDDW 222250Z AUTO 18005KT 9999 // NCD 13/12 Q1009
EDDW 222220Z 22004KT CAVOK 14/13 Q1009
EDDW 222150Z 20003KT CAVOK 16/14 Q1009
EDDW 222120Z 17006KT 9999 FEW040 BKN130 16/14 Q1009 NOSIG
EDDW 222050Z 21006KT 9999 FEW040 BKN090 16/14 Q1009 NOSIG
EDDW 222020Z 24007KT 9999 -SHRA SCT036 BKN110 16/14 Q1010 RETS NOSIG
EDDW 221950Z 27022G32KT 230V290 9999 -TSRA SCT030CB BKN070 18/14 Q1010 TEMPO 23010KT NSW
EDDW 221920Z 19008KT 9999 VCSH NSC 21/13 Q1008 TEMPO 22020G40KT 4000 TSRA BKN030CB
EDDW 221850Z 13007KT CAVOK 21/15 Q1008 TEMPO 22020G40KT 4000 TSRA BKN030CB
EDDW 221820Z 12005KT CAVOK 21/15 Q1008 TEMPO 22020G40KT 4000 TSRA BKN030CB
EDDW 221750Z 13004KT CAVOK 22/14 Q1008 NOSIG
EDDW 221720Z 12005KT CAVOK 23/14 Q1008 NOSIG
EDDW 221650Z 13006KT CAVOK 24/14 Q1008 NOSIG
EDDW 221620Z 15007KT CAVOK 24/14 Q1008 NOSIG
EDDW 221550Z 14006KT 110V180 CAVOK 24/13 Q1009 NOSIG
EDDW 221520Z 14008KT 110V170 CAVOK 24/14 Q1009 NOSIG
EDDW 221450Z 15008KT 120V180 CAVOK 24/13 Q1009 NOSIG
EDDW 221420Z 15010KT CAVOK 23/13 Q1010 NOSIG
EDDW 221350Z 13010KT 100V160 CAVOK 23/11 Q1010 NOSIG
EDDW 221320Z 13009KT 090V160 CAVOK 22/11 Q1011 NOSIG
EDDW 221250Z 13009KT 090V160 CAVOK 22/11 Q1011 NOSIG
EDDW 221220Z 12008KT 080V150 CAVOK 21/10 Q1012 NOSIG
EDDW 221150Z 11010KT 060V170 CAVOK 20/09 Q1012 NOSIG
EDDW 221120Z 13010KT 090V150 CAVOK 20/09 Q1013 NOSIG
EDDW 221050Z 11008KT 080V150 CAVOK 19/09 Q1013 NOSIG
EDDW 221020Z 10010KT CAVOK 18/08 Q1013 NOSIG
EDDW 220950Z 10009KT 070V140 CAVOK 17/08 Q1014 NOSIG